.
WxDataArchive / Data Records for 2009-01-22
2009-01-21 January 2009 2009-01-23

Data Records for Thursday, 22 January 2009

Time	Temp	Chill	HIndex	Humid	Dewpt	 Wind 	HiWind	WindDir	Rain 	Barom 
-----	----	-----	------	-----	-----	------	------	-------	-----	----- 
00:00	25.4	25.4	25.4	71	17.3	1	3	248	0.00	29.979 
00:05	25.3	25.3	25.3	71	17.2	1	3	248	0.00	29.975 
00:10	25.3	25.3	25.3	71	17.2	1	6	248	0.00	29.974 
00:15	25.1	25.1	25.1	71	17.0	1	5	248	0.00	29.972 
00:20	25.1	25.1	25.1	71	17.0	1	4	248	0.00	29.971 
00:25	25.0	25.0	25.0	71	16.9	1	4	248	0.00	29.968 
00:30	24.8	24.8	24.8	71	16.8	1	4	248	0.00	29.968 
00:35	24.8	24.8	24.8	71	16.8	1	4	225	0.00	29.966 
00:40	24.7	24.7	24.7	71	16.7	0	3	248	0.00	29.963 
00:45	24.7	24.7	24.7	71	16.7	1	5	248	0.00	29.961 
00:50	24.5	24.5	24.5	71	16.5	1	3	248	0.00	29.960 
00:55	24.7	24.7	24.7	71	16.7	2	5	248	0.00	29.959 
01:00	24.7	24.7	24.7	71	16.7	2	5	248	0.00	29.959 
01:05	24.7	24.7	24.7	71	16.7	1	3	248	0.00	29.957 
01:10	24.8	24.8	24.8	70	16.4	2	5	248	0.00	29.958 
01:15	24.8	24.8	24.8	70	16.4	1	3	248	0.00	29.956 
01:20	24.8	24.8	24.8	70	16.4	2	5	248	0.00	29.957 
01:25	24.8	24.8	24.8	70	16.4	1	4	248	0.00	29.957 
01:30	24.7	24.7	24.7	70	16.3	1	5	248	0.00	29.955 
01:35	24.7	24.7	24.7	70	16.3	1	4	248	0.00	29.956 
01:40	24.7	24.7	24.7	70	16.3	1	4	248	0.00	29.957 
01:45	24.7	24.7	24.7	70	16.3	2	5	248	0.00	29.957 
01:50	24.5	24.5	24.5	70	16.1	1	4	248	0.00	29.958 
01:55	24.4	24.4	24.4	70	16.0	1	2	248	0.00	29.957 
02:00	24.4	24.4	24.4	71	16.4	1	5	248	0.00	29.956 
02:05	24.4	24.4	24.4	71	16.4	1	5	248	0.00	29.953 
02:10	24.2	24.2	24.2	71	16.2	1	3	248	0.00	29.952 
02:15	24.2	24.2	24.2	71	16.2	1	5	248	0.00	29.952 
02:20	24.2	24.2	24.2	71	16.2	1	3	248	0.00	29.950 
02:25	24.2	24.2	24.2	71	16.2	1	3	225	0.00	29.951 
02:30	24.1	24.1	24.1	71	16.1	1	4	248	0.00	29.952 
02:35	24.1	24.1	24.1	72	16.4	1	5	248	0.00	29.956 
02:40	24.2	24.2	24.2	72	16.5	1	4	248	0.00	29.958 
02:45	24.2	24.2	24.2	72	16.5	1	3	248	0.00	29.957 
02:50	24.2	24.2	24.2	72	16.5	2	4	248	0.00	29.957 
02:55	24.2	24.2	24.2	72	16.5	1	3	248	0.00	29.957 
03:00	24.2	24.2	24.2	72	16.5	1	3	248	0.00	29.954 
03:05	24.2	24.2	24.2	72	16.5	1	5	248	0.00	29.953 
03:10	24.2	24.2	24.2	72	16.5	2	9	248	0.00	29.953 
03:15	24.2	24.2	24.2	72	16.5	2	7	248	0.00	29.950 
03:20	24.2	24.2	24.2	72	16.5	1	4	248	0.00	29.955 
03:25	24.2	24.2	24.2	73	16.8	1	3	248	0.00	29.956 
03:30	24.1	24.1	24.1	73	16.7	1	3	248	0.00	29.956 
03:35	24.1	24.1	24.1	73	16.7	1	4	248	0.00	29.955 
03:40	24.1	24.1	24.1	73	16.7	2	5	248	0.00	29.952 
03:45	24.1	24.1	24.1	73	16.7	1	5	225	0.00	29.948 
03:50	23.9	23.9	23.9	73	16.5	1	4	270	0.00	29.949 
03:55	23.9	23.9	23.9	74	16.8	1	3	248	0.00	29.947 
04:00	23.8	23.8	23.8	74	16.7	1	6	248	0.00	29.947 
04:05	23.8	23.8	23.8	74	16.7	1	4	225	0.00	29.948 
04:10	23.6	23.6	23.6	74	16.6	1	3	248	0.00	29.948 
04:15	23.6	23.6	23.6	75	16.9	1	4	248	0.00	29.947 
04:20	23.5	23.5	23.5	75	16.8	1	3	248	0.00	29.947 
04:25	23.3	23.3	23.3	75	16.6	1	5	248	0.00	29.944 
04:30	23.2	23.2	23.2	75	16.5	0	2	248	0.00	29.944 
04:35	23.0	23.0	23.0	75	16.3	0	2	248	0.00	29.944 
04:40	22.9	22.9	22.9	76	16.5	0	1	248	0.00	29.944 
04:45	22.5	22.5	22.5	76	16.1	0	1	248	0.00	29.944 
04:50	22.4	22.4	22.4	77	16.3	0	2	248	0.00	29.944 
04:55	22.2	22.2	22.2	77	16.1	0	1	248	0.00	29.946 
05:00	22.1	22.1	22.1	77	16.0	0	1	248	0.00	29.944 
05:05	21.9	21.9	21.9	78	16.1	0	1	248	0.00	29.944 
05:10	21.6	21.6	21.6	78	15.8	0	0	---	0.00	29.937 
05:15	21.4	21.4	21.4	78	15.6	0	1	248	0.00	29.938 
05:20	21.3	21.3	21.3	79	15.8	0	1	248	0.00	29.939 
05:25	21.1	21.1	21.1	80	15.9	0	1	248	0.00	29.941 
05:30	21.1	21.1	21.1	80	15.9	0	1	248	0.00	29.943 
05:35	21.1	21.1	21.1	81	16.2	0	1	248	0.00	29.943 
05:40	21.0	21.0	21.0	81	16.1	0	2	248	0.00	29.944 
05:45	21.1	21.1	21.1	81	16.2	0	2	248	0.00	29.942 
05:50	21.3	21.3	21.3	82	16.7	0	2	248	0.00	29.945 
05:55	21.6	21.6	21.6	82	17.0	1	3	248	0.00	29.946 
06:00	21.8	21.8	21.8	82	17.2	1	4	248	0.00	29.945 
06:05	22.2	22.2	22.2	82	17.6	2	4	248	0.00	29.949 
06:10	22.5	22.5	22.5	82	17.9	1	5	225	0.00	29.949 
06:15	22.7	22.7	22.7	82	18.0	2	4	225	0.00	29.945 
06:20	23.0	23.0	23.0	82	18.3	2	4	248	0.00	29.947 
06:25	23.2	23.2	23.2	82	18.5	2	5	248	0.00	29.947 
06:30	23.3	23.3	23.3	81	18.3	1	4	248	0.00	29.948 
06:35	23.3	23.3	23.3	81	18.3	1	5	248	0.00	29.948 
06:40	23.5	23.5	23.5	81	18.5	2	7	248	0.00	29.948 
06:45	23.6	23.6	23.6	81	18.6	2	6	248	0.00	29.949 
06:50	23.6	23.6	23.6	81	18.6	2	5	248	0.00	29.953 
06:55	23.6	23.6	23.6	81	18.6	2	5	248	0.00	29.958 
07:00	23.6	23.6	23.6	81	18.6	1	3	248	0.00	29.960 
07:05	23.6	23.6	23.6	81	18.6	1	3	248	0.00	29.963 
07:10	23.6	23.6	23.6	81	18.6	1	3	248	0.00	29.964 
07:15	23.6	23.6	23.6	81	18.6	2	5	248	0.00	29.964 
07:20	23.8	23.8	23.8	81	18.8	1	5	248	0.00	29.963 
07:25	23.8	23.8	23.8	81	18.8	2	4	248	0.00	29.963 
07:30	23.8	23.8	23.8	81	18.8	2	6	248	0.00	29.964 
07:35	23.8	23.8	23.8	81	18.8	2	6	248	0.00	29.964 
07:40	23.8	23.8	23.8	81	18.8	2	5	248	0.00	29.966 
07:45	23.8	23.8	23.8	81	18.8	1	5	248	0.00	29.967 
07:50	23.8	23.8	23.8	81	18.8	1	3	248	0.00	29.968 
07:55	23.6	23.6	23.6	81	18.6	1	3	248	0.00	29.969 
08:00	23.6	23.6	23.6	81	18.6	1	3	248	0.00	29.976 
08:05	23.6	23.6	23.6	82	18.9	1	5	248	0.00	29.974 
08:10	23.6	23.6	23.6	82	18.9	1	4	248	0.00	29.976 
08:15	23.6	23.6	23.6	82	18.9	2	5	248	0.00	29.975 
08:20	23.6	23.6	23.6	82	18.9	1	4	248	0.00	29.978 
08:25	23.6	23.6	23.6	82	18.9	1	4	248	0.00	29.980 
08:30	23.6	23.6	23.6	82	18.9	0	1	248	0.00	29.984 
08:35	23.5	23.5	23.5	81	18.5	0	1	248	0.00	29.985 
08:40	23.3	23.3	23.3	81	18.3	0	1	248	0.00	29.988 
08:45	23.3	23.3	23.3	81	18.3	0	3	248	0.00	29.989 
08:50	23.5	23.5	23.5	81	18.5	1	3	248	0.00	29.987 
08:55	23.6	23.6	23.6	81	18.6	1	3	248	0.00	29.990 
09:00	23.6	23.6	23.6	81	18.6	1	5	248	0.00	29.990 
09:05	23.8	23.8	23.8	81	18.8	1	3	248	0.00	29.992 
09:10	23.9	23.9	23.9	81	18.9	1	4	248	0.00	29.992 
09:15	24.1	24.1	24.1	81	19.1	1	3	225	0.00	29.994 
09:20	24.4	24.4	24.4	81	19.4	1	3	248	0.00	29.995 
09:25	24.7	24.7	24.7	80	19.4	2	5	248	0.00	29.998 
09:30	25.1	25.1	25.1	80	19.8	1	6	248	0.00	29.999 
09:35	25.6	25.6	25.6	79	20.0	1	4	248	0.00	30.000 
09:40	25.8	25.8	25.8	79	20.2	2	6	248	0.00	29.995 
09:45	26.1	26.1	26.1	78	20.2	3	9	248	0.00	29.997 
09:50	26.3	26.3	26.3	77	20.1	3	7	248	0.00	29.997 
09:55	26.6	26.6	26.6	77	20.4	1	4	248	0.00	29.997 
10:00	26.7	26.7	26.7	77	20.5	3	6	248	0.00	29.998 
10:05	26.7	26.7	26.7	77	20.5	2	5	248	0.00	29.996 
10:10	27.0	27.0	27.0	76	20.5	1	5	248	0.00	29.997 
10:15	27.2	27.2	27.2	76	20.7	1	4	248	0.00	29.998 
10:20	27.5	27.5	27.5	75	20.6	3	5	248	0.00	29.999 
10:25	27.6	27.6	27.6	75	20.7	2	6	248	0.00	30.001 
10:30	27.9	27.9	27.9	74	20.7	1	4	248	0.00	30.003 
10:35	28.2	28.2	28.2	74	21.0	2	7	248	0.00	30.004 
10:40	28.4	28.4	28.4	73	20.9	2	5	248	0.00	30.004 
10:45	28.8	28.8	28.8	73	21.3	2	5	248	0.00	30.006 
10:50	29.1	29.1	29.1	73	21.5	2	4	248	0.00	30.011 
10:55	29.3	29.3	29.3	72	21.4	2	5	270	0.00	30.007 
11:00	29.5	29.5	29.5	72	21.6	2	4	270	0.00	30.011 
11:05	29.5	29.5	29.5	71	21.3	3	5	270	0.00	30.014 
11:10	29.7	29.7	29.7	71	21.5	3	6	270	0.00	30.014 
11:15	29.8	29.8	29.8	70	21.2	3	10	248	0.00	30.016 
11:20	30.1	30.1	30.1	69	21.2	2	5	270	0.00	30.017 
11:25	30.1	25.9	30.1	69	21.2	4	9	248	0.00	30.017 
11:30	30.0	25.8	30.0	69	21.1	4	10	270	0.00	30.017 
11:35	30.3	30.3	30.3	69	21.4	2	5	270	0.00	30.017 
11:40	30.4	30.4	30.4	69	21.5	2	5	248	0.00	30.016 
11:45	30.6	30.6	30.6	68	21.3	2	9	248	0.00	30.005 
11:50	30.6	30.6	30.6	67	21.0	3	7	270	0.00	30.003 
11:55	30.4	26.2	30.4	67	20.8	4	11	270	0.00	30.001 
12:00	30.4	26.2	30.4	67	20.8	4	7	270	0.00	30.003 
12:05	30.4	26.2	30.4	67	20.8	4	9	270	0.00	30.006 
12:10	30.4	26.2	30.4	67	20.8	4	10	270	0.00	30.005 
12:15	30.6	26.5	30.6	67	21.0	4	11	270	0.00	30.001 
12:20	30.7	30.7	30.7	66	20.7	3	7	270	0.00	30.000 
12:25	30.9	26.8	30.9	66	20.9	4	7	270	0.00	30.000 
12:30	31.0	31.0	31.0	66	21.0	3	10	270	0.00	29.996 
12:35	31.2	31.2	31.2	66	21.2	3	9	270	0.00	29.985 
12:40	31.5	31.5	31.5	65	21.1	2	5	270	0.00	29.982 
12:45	31.8	31.8	31.8	65	21.4	2	7	270	0.00	29.982 
12:50	32.2	32.2	32.2	65	21.8	2	5	270	0.00	29.983 
12:55	32.5	32.5	32.5	64	21.7	3	7	248	0.00	29.980 
13:00	32.7	32.7	32.7	63	21.5	3	9	248	0.00	29.977 
13:05	32.7	28.9	32.7	63	21.5	4	10	270	0.00	29.980 
13:10	32.9	32.9	32.9	63	21.7	2	4	248	0.00	29.979 
13:15	33.2	33.2	33.2	62	21.6	2	6	248	0.00	29.974 
13:20	33.7	33.7	33.7	62	22.1	2	5	248	0.00	29.967 
13:25	34.0	34.0	34.0	62	22.4	2	4	248	0.00	29.966 
13:30	34.1	34.1	34.1	62	22.5	2	6	248	0.00	29.966 
13:35	34.3	34.3	34.3	62	22.7	2	5	248	0.00	29.966 
13:40	34.3	34.3	34.3	61	22.3	3	6	248	0.00	29.966 
13:45	34.1	34.1	34.1	62	22.5	2	6	248	0.00	29.965 
13:50	34.3	34.3	34.3	61	22.3	3	7	270	0.00	29.965 
13:55	34.6	34.6	34.6	61	22.6	2	6	248	0.00	29.964 
14:00	34.6	34.6	34.6	60	22.2	3	7	248	0.00	29.962 
14:05	34.6	34.6	34.6	60	22.2	3	10	248	0.00	29.961 
14:10	34.7	34.7	34.7	60	22.3	3	11	248	0.00	29.962 
14:15	35.0	35.0	35.0	59	22.1	2	7	225	0.00	29.964 
14:20	35.3	35.3	35.3	59	22.4	2	7	248	0.00	29.963 
14:25	35.5	35.5	35.5	59	22.6	2	6	248	0.00	29.962 
14:30	35.6	35.6	35.6	59	22.7	2	6	248	0.00	29.963 
14:35	35.6	32.2	35.6	58	22.3	4	10	248	0.00	29.959 
14:40	35.6	35.6	35.6	60	23.1	3	9	248	0.00	29.962 
14:45	35.8	35.8	35.8	60	23.3	3	7	248	0.00	29.958 
14:50	35.9	35.9	35.9	59	23.0	3	8	248	0.00	29.953 
14:55	35.9	35.9	35.9	60	23.4	3	10	248	0.00	29.951 
15:00	36.0	36.0	36.0	60	23.5	3	7	270	0.00	29.953 
15:05	36.3	36.3	36.3	59	23.4	3	7	248	0.00	29.952 
15:10	36.5	36.5	36.5	60	24.0	2	5	248	0.00	29.953 
15:15	36.8	36.8	36.8	60	24.2	2	5	248	0.00	29.949 
15:20	36.8	36.8	36.8	60	24.2	2	6	248	0.00	29.950 
15:25	36.8	36.8	36.8	60	24.2	2	5	248	0.00	29.952 
15:30	36.9	36.9	36.9	60	24.3	2	4	248	0.00	29.954 
15:35	37.0	37.0	37.0	60	24.4	3	7	248	0.00	29.953 
15:40	37.3	37.3	37.3	60	24.7	2	5	248	0.00	29.958 
15:45	37.5	37.5	37.5	59	24.5	3	8	248	0.00	29.957 
15:50	37.6	37.6	37.6	59	24.6	2	7	248	0.00	29.960 
15:55	37.8	37.8	37.8	60	25.2	2	4	248	0.00	29.961 
16:00	37.8	37.8	37.8	59	24.8	3	7	248	0.00	29.961 
16:05	37.8	37.8	37.8	59	24.8	2	6	248	0.00	29.963 
16:10	37.6	37.6	37.6	59	24.6	3	7	248	0.00	29.962 
16:15	37.6	37.6	37.6	59	24.6	2	7	248	0.00	29.962 
16:20	37.6	37.6	37.6	59	24.6	2	5	248	0.00	29.961 
16:25	37.6	37.6	37.6	59	24.6	3	7	248	0.00	29.961 
16:30	37.3	37.3	37.3	59	24.3	2	5	248	0.01	29.963 
16:35	37.3	37.3	37.3	60	24.7	1	6	248	0.00	29.966 
16:40	37.2	37.2	37.2	60	24.6	1	5	248	0.00	29.966 
16:45	37.0	37.0	37.0	61	24.8	2	5	248	0.00	29.967 
16:50	36.9	36.9	36.9	61	24.7	1	3	248	0.00	29.969 
16:55	36.8	36.8	36.8	61	24.6	1	3	248	0.00	29.968 
17:00	36.6	36.6	36.6	62	24.8	1	4	248	0.00	29.970 
17:05	36.3	36.3	36.3	62	24.5	0	2	248	0.00	29.974 
17:10	36.0	36.0	36.0	63	24.6	1	3	248	0.00	29.975 
17:15	35.8	35.8	35.8	63	24.5	0	2	248	0.00	29.977 
17:20	35.5	35.5	35.5	64	24.5	0	2	248	0.00	29.981 
17:25	35.2	35.2	35.2	65	24.6	1	4	248	0.00	29.984 
17:30	34.9	34.9	34.9	65	24.3	0	2	248	0.00	29.982 
17:35	34.4	34.4	34.4	66	24.2	0	2	248	0.00	29.983 
17:40	34.3	34.3	34.3	67	24.5	1	4	248	0.00	29.983 
17:45	34.0	34.0	34.0	67	24.2	0	3	248	0.00	29.982 
17:50	33.7	33.7	33.7	68	24.3	0	4	248	0.00	29.981 
17:55	33.4	33.4	33.4	69	24.3	0	2	248	0.00	29.983 
18:00	33.2	33.2	33.2	69	24.2	0	4	248	0.00	29.986 
18:05	32.9	32.9	32.9	70	24.2	0	1	248	0.00	29.986 
18:10	32.8	32.8	32.8	70	24.1	0	1	248	0.00	29.986 
18:15	32.5	32.5	32.5	71	24.2	0	1	248	0.00	29.987 
18:20	32.1	32.1	32.1	71	23.8	0	0	---	0.00	29.985 
18:25	31.6	31.6	31.6	72	23.6	0	0	---	0.00	29.983 
18:30	31.2	31.2	31.2	73	23.6	0	0	---	0.00	29.983 
18:35	30.7	30.7	30.7	73	23.1	0	0	---	0.00	29.984 
18:40	30.1	30.1	30.1	75	23.2	0	0	---	0.00	29.985 
18:45	29.7	29.7	29.7	75	22.8	0	0	---	0.00	29.983 
18:50	29.3	29.3	29.3	77	23.0	0	0	---	0.00	29.985 
18:55	28.8	28.8	28.8	77	22.5	0	0	---	0.00	29.985 
19:00	28.4	28.4	28.4	78	22.4	0	1	248	0.00	29.987 
19:05	28.4	28.4	28.4	80	23.0	0	0	---	0.00	29.988 
19:10	28.1	28.1	28.1	80	22.7	0	0	---	0.00	29.988 
19:15	27.9	27.9	27.9	81	22.8	0	0	---	0.00	29.982 
19:20	27.6	27.6	27.6	81	22.5	0	0	---	0.00	29.983 
19:25	27.6	27.6	27.6	81	22.5	0	0	---	0.00	29.984 
19:30	27.6	27.6	27.6	83	23.1	0	0	---	0.00	29.977 
19:35	27.8	27.8	27.8	83	23.3	0	1	248	0.00	29.972 
19:40	28.1	28.1	28.1	83	23.6	0	2	248	0.00	29.965 
19:45	28.5	28.5	28.5	83	24.0	0	1	248	0.00	29.963 
19:50	28.8	28.8	28.8	81	23.7	0	0	---	0.00	29.967 
19:55	28.7	28.7	28.7	81	23.6	0	0	---	0.00	29.969 
20:00	28.4	28.4	28.4	81	23.3	0	0	---	0.00	29.970 
20:05	28.1	28.1	28.1	81	23.0	0	0	---	0.00	29.971 
20:10	27.6	27.6	27.6	81	22.5	0	0	---	0.00	29.968 
20:15	27.2	27.2	27.2	81	22.2	0	0	---	0.00	29.967 
20:20	26.7	26.7	26.7	82	22.0	0	0	---	0.00	29.965 
20:25	26.3	26.3	26.3	83	21.9	0	0	---	0.00	29.967 
20:30	26.0	26.0	26.0	83	21.6	0	0	---	0.00	29.964 
20:35	25.7	25.7	25.7	84	21.5	0	0	---	0.00	29.962 
20:40	25.6	25.6	25.6	84	21.5	0	0	---	0.00	29.962 
20:45	25.3	25.3	25.3	84	21.2	0	0	---	0.00	29.964 
20:50	25.0	25.0	25.0	84	20.9	0	0	---	0.00	29.965 
20:55	24.7	24.7	24.7	84	20.6	0	0	---	0.00	29.964 
21:00	24.7	24.7	24.7	86	21.1	0	0	---	0.00	29.958 
21:05	24.7	24.7	24.7	86	21.1	0	0	---	0.00	29.956 
21:10	24.7	24.7	24.7	86	21.1	0	0	---	0.00	29.955 
21:15	24.5	24.5	24.5	87	21.2	0	0	---	0.00	29.953 
21:20	24.4	24.4	24.4	87	21.1	0	0	---	0.00	29.957 
21:25	24.1	24.1	24.1	87	20.8	0	0	---	0.00	29.958 
21:30	23.9	23.9	23.9	87	20.6	0	0	---	0.00	29.960 
21:35	23.8	23.8	23.8	87	20.5	0	0	---	0.00	29.959 
21:40	23.6	23.6	23.6	87	20.3	0	0	---	0.00	29.957 
21:45	23.3	23.3	23.3	88	20.3	0	0	---	0.00	29.953 
21:50	23.2	23.2	23.2	88	20.2	0	0	---	0.00	29.945 
21:55	23.0	23.0	23.0	88	20.0	0	0	---	0.00	29.946 
22:00	22.9	22.9	22.9	88	19.9	0	0	---	0.00	29.947 
22:05	22.5	22.5	22.5	88	19.5	0	0	---	0.00	29.944 
22:10	22.2	22.2	22.2	88	19.2	0	0	---	0.00	29.947 
22:15	22.2	22.2	22.2	88	19.2	0	0	---	0.00	29.945 
22:20	21.9	21.9	21.9	88	18.9	0	0	---	0.00	29.943 
22:25	21.8	21.8	21.8	88	18.8	0	0	---	0.00	29.944 
22:30	21.4	21.4	21.4	88	18.4	0	0	---	0.00	29.945 
22:35	21.3	21.3	21.3	88	18.3	0	0	---	0.00	29.947 
22:40	21.1	21.1	21.1	88	18.1	0	0	---	0.00	29.945 
22:45	21.1	21.1	21.1	89	18.4	0	0	---	0.00	29.942 
22:50	21.1	21.1	21.1	89	18.4	0	0	---	0.00	29.941 
22:55	21.0	21.0	21.0	89	18.3	0	0	---	0.00	29.940 
23:00	21.0	21.0	21.0	89	18.3	0	0	---	0.00	29.938 
23:05	20.6	20.6	20.6	89	17.9	0	0	---	0.00	29.934 
23:10	20.5	20.5	20.5	89	17.8	0	0	---	0.00	29.932 
23:15	20.5	20.5	20.5	89	17.8	0	0	---	0.00	29.928 
23:20	20.3	20.3	20.3	89	17.6	0	0	---	0.00	29.927 
23:25	20.3	20.3	20.3	89	17.6	0	0	---	0.00	29.926 
23:30	20.2	20.2	20.2	89	17.5	0	0	---	0.00	29.926 
23:35	20.0	20.0	20.0	89	17.3	0	0	---	0.00	29.925 
23:40	19.9	19.9	19.9	89	17.2	0	0	---	0.00	29.924 
23:45	19.9	19.9	19.9	89	17.2	0	0	---	0.00	29.921 
23:50	19.7	19.7	19.7	90	17.3	0	0	---	0.00	29.921 
23:55	19.5	19.5	19.5	90	17.1	0	0	---	0.00	29.913 

CoCoRaHS
IN-AL-39
A2 Web Hosting
Creative Commons License
GoDaddy
search engine by freefind advanced

loaded 2018-11-21 00:57:55 • last modified 2010-11-18 10:43:29
Privacy PolicyDisclaimer
• wx.awcolley.com is powered by PmWiki v.2002016 •
• all content (unless otherwise noted) © 2018 A W Colley